Time;durP1;ratioP1;P1;durP2;ratioP2;P2;SDS_P1;SDS_P2;PMS_P1;PMS_P2;Temp;Humidity;BMP_temperature;BMP_pressure;BME280_temperature;BME280_humidity;BME280_pressure;Samples;Min_cycle;Max_cycle;Signal;HPM_P1;HPM_P2
2020/12/31 00:00:50;;;;;;;7.00;4.60;;;4.10;99.90;;;;;;4957322;29;20460;-92
2020/12/31 00:03:17;;;;;;;4.97;4.57;;;4.10;99.90;;;;;;4958010;28;20477;-92
2020/12/31 00:05:43;;;;;;;5.47;4.63;;;4.10;99.90;;;;;;4957268;28;20480;-93
2020/12/31 00:08:09;;;;;;;5.73;5.13;;;4.00;99.90;;;;;;4957266;29;20462;-92
2020/12/31 00:10:35;;;;;;;5.47;4.97;;;4.00;99.90;;;;;;4957598;28;20457;-92
2020/12/31 00:13:02;;;;;;;6.20;5.60;;;4.10;99.90;;;;;;4957572;28;20479;-92
2020/12/31 00:15:28;;;;;;;7.47;4.70;;;4.10;99.90;;;;;;4956909;28;20452;-92
2020/12/31 00:17:54;;;;;;;5.93;5.33;;;4.10;99.90;;;;;;4957533;29;20489;-93
2020/12/31 00:20:21;;;;;;;6.20;5.60;;;4.20;99.90;;;;;;4956959;28;20862;-93
2020/12/31 00:22:48;;;;;;;8.20;6.80;;;4.20;99.90;;;;;;4956894;28;20472;-92
2020/12/31 00:25:14;;;;;;;8.47;6.43;;;4.20;99.90;;;;;;4956946;28;20480;-93
2020/12/31 00:27:40;;;;;;;6.23;5.63;;;4.30;99.90;;;;;;4957019;28;20464;-93
2020/12/31 00:30:07;;;;;;;6.23;5.63;;;4.30;99.90;;;;;;4956679;28;20825;-93
2020/12/31 00:32:36;;;;;;;6.47;5.50;;;4.30;99.90;;;;;;4956546;28;20492;-93
2020/12/31 00:35:03;;;;;;;6.23;5.63;;;4.30;99.90;;;;;;4955997;28;20449;-90
2020/12/31 00:37:34;;;;;;;5.17;4.67;;;4.30;99.90;;;;;;4954957;28;20444;-90
2020/12/31 00:40:00;;;;;;;6.33;5.73;;;4.30;99.90;;;;;;4954753;28;20547;-90
2020/12/31 00:42:26;;;;;;;5.60;5.10;;;4.30;99.90;;;;;;4953860;28;21012;-91
2020/12/31 00:44:52;;;;;;;6.50;5.90;;;4.30;99.90;;;;;;4954716;29;20488;-92
2020/12/31 00:47:18;;;;;;;6.73;5.60;;;4.30;99.90;;;;;;4954917;28;20499;-90
2020/12/31 00:49:45;;;;;;;7.90;5.10;;;4.30;99.90;;;;;;4954685;28;21025;-90
2020/12/31 00:52:11;;;;;;;5.23;4.83;;;4.30;99.90;;;;;;4952001;28;20464;-90
2020/12/31 00:54:38;;;;;;;6.10;5.40;;;4.40;99.90;;;;;;4954543;28;20449;-92
2020/12/31 00:57:04;;;;;;;4.97;4.57;;;4.30;99.90;;;;;;4954702;28;21009;-92
2020/12/31 00:59:30;;;;;;;4.00;3.33;;;4.30;99.90;;;;;;4954994;28;20473;-91
2020/12/31 01:02:32;;;;;;;6.13;5.30;;;4.30;99.90;;;;;;4956794;28;20472;-92
2020/12/31 01:05:01;;;;;;;4.27;3.70;;;4.40;99.90;;;;;;4959082;28;20476;-92
2020/12/31 01:07:27;;;;;;;4.90;3.70;;;4.40;99.90;;;;;;4975893;28;20497;-92
2020/12/31 01:09:54;;;;;;;4.33;3.63;;;4.40;99.90;;;;;;4961618;28;20440;-93
2020/12/31 01:12:20;;;;;;;4.50;4.10;;;4.40;99.90;;;;;;4956246;28;20468;-92
2020/12/31 01:14:46;;;;;;;4.10;3.40;;;4.20;99.90;;;;;;4957004;29;20461;-93
2020/12/31 01:17:13;;;;;;;4.67;3.90;;;4.20;99.90;;;;;;4955887;28;20435;-92
2020/12/31 01:19:39;;;;;;;4.80;3.73;;;4.20;99.90;;;;;;4955094;28;20890;-94
2020/12/31 01:22:05;;;;;;;5.47;3.30;;;4.10;99.90;;;;;;4955300;28;20449;-93
2020/12/31 01:24:31;;;;;;;3.03;2.83;;;4.10;99.90;;;;;;4955083;28;20476;-93
2020/12/31 01:27:01;;;;;;;4.10;3.70;;;4.00;99.90;;;;;;4954533;29;20445;-92
2020/12/31 01:29:28;;;;;;;5.57;4.67;;;4.00;99.90;;;;;;4954941;28;20449;-94
2020/12/31 01:31:54;;;;;;;3.70;3.40;;;4.00;99.90;;;;;;4955438;28;20901;-93
2020/12/31 01:34:20;;;;;;;4.17;3.57;;;4.00;99.90;;;;;;4955387;29;20453;-92
2020/12/31 01:36:46;;;;;;;2.87;2.60;;;3.90;99.90;;;;;;4955117;29;20460;-93
2020/12/31 01:39:13;;;;;;;5.53;3.50;;;3.90;99.90;;;;;;4955106;28;20463;-94
2020/12/31 01:41:39;;;;;;;4.27;3.70;;;3.80;99.90;;;;;;4954928;28;20488;-91
2020/12/31 01:44:08;;;;;;;5.07;3.37;;;3.70;99.90;;;;;;4955152;28;20440;-92
2020/12/31 01:46:37;;;;;;;4.30;3.70;;;3.70;99.90;;;;;;4949776;28;20476;-93
2020/12/31 01:49:05;;;;;;;4.13;3.73;;;3.60;99.90;;;;;;4955279;28;20555;-95
2020/12/31 01:51:34;;;;;;;4.20;3.80;;;3.60;99.90;;;;;;4952285;28;20471;-92
2020/12/31 01:54:01;;;;;;;4.60;4.20;;;3.60;99.90;;;;;;4954625;28;20459;-95
2020/12/31 01:56:29;;;;;;;4.00;3.60;;;3.50;99.90;;;;;;4954117;28;20441;-93
2020/12/31 01:58:56;;;;;;;5.30;4.80;;;3.50;99.90;;;;;;4954808;28;20619;-94
2020/12/31 02:01:25;;;;;;;7.60;4.87;;;3.50;99.90;;;;;;4954352;28;20507;-93
2020/12/31 02:03:52;;;;;;;5.43;4.90;;;3.50;99.90;;;;;;4949751;29;20452;-91
2020/12/31 02:06:20;;;;;;;7.80;4.47;;;3.40;99.90;;;;;;4954726;28;21014;-92
2020/12/31 02:08:46;;;;;;;6.30;5.33;;;3.30;99.90;;;;;;4955632;29;20448;-93
2020/12/31 02:11:14;;;;;;;5.50;4.80;;;3.30;99.90;;;;;;4954783;28;20514;-92
2020/12/31 02:13:40;;;;;;;6.10;5.17;;;3.20;99.90;;;;;;4954636;29;20456;-93
2020/12/31 02:16:10;;;;;;;5.63;4.97;;;3.20;99.90;;;;;;4954204;28;20452;-93
2020/12/31 02:18:49;;;;;;;6.00;5.30;;;3.10;99.90;;;;;;4954599;28;20479;-93
2020/12/31 02:21:18;;;;;;;5.53;5.00;;;3.00;99.90;;;;;;4949537;28;20455;-92
2020/12/31 02:23:45;;;;;;;10.30;6.00;;;2.90;99.90;;;;;;4954389;28;20777;-93
2020/12/31 02:26:11;;;;;;;7.00;5.43;;;2.90;99.90;;;;;;4953797;28;21004;-92
2020/12/31 02:28:38;;;;;;;6.80;5.50;;;2.90;99.90;;;;;;4954559;29;20462;-91
2020/12/31 02:31:04;;;;;;;5.90;5.40;;;2.90;99.90;;;;;;4954448;28;20533;-93
2020/12/31 02:33:30;;;;;;;5.73;5.20;;;2.90;99.90;;;;;;4954408;28;20458;-91
2020/12/31 02:35:56;;;;;;;7.07;5.83;;;2.80;99.90;;;;;;4954762;29;20958;-92
2020/12/31 02:38:23;;;;;;;6.13;5.63;;;2.70;99.90;;;;;;4954777;29;20451;-93
2020/12/31 02:40:50;;;;;;;6.97;6.30;;;2.70;99.90;;;;;;4954163;29;20475;-92
2020/12/31 02:43:16;;;;;;;6.73;5.50;;;2.60;99.90;;;;;;4954086;28;20468;-92
2020/12/31 02:45:42;;;;;;;7.55;5.20;;;2.60;99.90;;;;;;4953410;29;20471;-92
2020/12/31 02:48:08;;;;;;;6.15;5.55;;;2.70;99.90;;;;;;4954195;28;20212;-94
2020/12/31 02:50:35;;;;;;;7.00;5.13;;;2.80;99.90;;;;;;4953965;29;20205;-92
2020/12/31 02:53:01;;;;;;;6.17;4.93;;;2.70;99.90;;;;;;4953812;29;21001;-92
2020/12/31 02:55:27;;;;;;;5.73;5.10;;;2.70;99.90;;;;;;4953478;28;20990;-94
2020/12/31 02:57:54;;;;;;;6.00;5.47;;;2.80;99.90;;;;;;4953814;28;20440;-92
2020/12/31 03:00:20;;;;;;;7.00;6.30;;;3.00;99.90;;;;;;4953944;28;20456;-92
2020/12/31 03:02:46;;;;;;;5.70;5.10;;;3.00;99.90;;;;;;4953787;28;20510;-92
2020/12/31 03:05:12;;;;;;;6.90;5.60;;;3.00;99.90;;;;;;4953154;29;20487;-91
2020/12/31 03:07:39;;;;;;;6.57;5.00;;;3.00;99.90;;;;;;4953711;29;20502;-92
2020/12/31 03:10:05;;;;;;;6.47;5.87;;;3.00;99.90;;;;;;4953668;29;20504;-95
2020/12/31 03:12:31;;;;;;;6.27;5.67;;;3.00;99.90;;;;;;4953501;28;20527;-92
2020/12/31 03:14:58;;;;;;;7.80;6.07;;;2.90;99.90;;;;;;4953371;29;20468;-92
2020/12/31 03:17:24;;;;;;;5.73;5.23;;;2.90;99.90;;;;;;4953387;29;20437;-93
2020/12/31 03:19:51;;;;;;;5.77;5.23;;;2.90;99.90;;;;;;4953599;29;20830;-91
2020/12/31 03:22:17;;;;;;;5.67;5.17;;;2.80;99.90;;;;;;4954014;28;20479;-92
2020/12/31 03:24:43;;;;;;;4.93;4.43;;;2.80;99.90;;;;;;4954675;29;20447;-92
2020/12/31 03:27:10;;;;;;;5.10;4.60;;;2.70;99.90;;;;;;4955323;29;20467;-91
2020/12/31 03:29:36;;;;;;;6.22;4.68;;;2.60;99.90;;;;;;4963282;28;20468;-93
2020/12/31 03:32:03;;;;;;;5.50;5.00;;;2.60;99.90;;;;;;4963078;28;20303;-94
2020/12/31 03:34:29;;;;;;;8.30;5.10;;;2.50;99.90;;;;;;4953362;28;20490;-92
2020/12/31 03:36:56;;;;;;;6.30;5.10;;;2.50;99.90;;;;;;4953383;28;20509;-92
2020/12/31 03:39:23;;;;;;;6.23;5.60;;;2.40;99.90;;;;;;4953435;28;20456;-92
2020/12/31 03:41:49;;;;;;;5.70;5.17;;;2.50;99.90;;;;;;4953493;28;20479;-93
2020/12/31 03:44:15;;;;;;;5.50;5.00;;;2.50;99.90;;;;;;4953436;29;20469;-93
2020/12/31 03:46:41;;;;;;;6.83;5.17;;;2.50;99.90;;;;;;4952670;29;20529;-93
2020/12/31 03:49:08;;;;;;;4.40;4.07;;;2.50;99.90;;;;;;4953268;28;20438;-91
2020/12/31 03:51:34;;;;;;;6.43;4.65;;;2.50;99.90;;;;;;4953450;28;20479;-92
2020/12/31 03:54:00;;;;;;;5.75;5.10;;;2.40;99.90;;;;;;4953536;28;20685;-91
2020/12/31 03:56:27;;;;;;;5.57;5.10;;;2.40;99.90;;;;;;4953223;28;20736;-93
2020/12/31 03:58:53;;;;;;;5.50;4.97;;;2.30;99.90;;;;;;4953509;28;20244;-92
2020/12/31 04:01:19;;;;;;;7.20;5.67;;;2.30;99.90;;;;;;4953302;28;20200;-92
2020/12/31 04:03:45;;;;;;;6.10;5.50;;;2.20;99.90;;;;;;4953824;28;20468;-91
2020/12/31 04:06:13;;;;;;;6.57;5.80;;;2.20;99.90;;;;;;4953161;28;20224;-93
2020/12/31 04:08:40;;;;;;;6.93;5.60;;;2.30;99.90;;;;;;4953167;28;20458;-93
2020/12/31 04:11:06;;;;;;;7.10;5.40;;;2.20;99.90;;;;;;4953093;28;20433;-93
2020/12/31 04:13:32;;;;;;;8.05;6.45;;;2.10;99.90;;;;;;4953429;28;20454;-92
2020/12/31 04:15:58;;;;;;;6.30;5.50;;;2.10;99.90;;;;;;4952901;28;20206;-93
2020/12/31 04:18:24;;;;;;;6.25;5.65;;;2.10;99.90;;;;;;4956005;28;20853;-91
2020/12/31 04:20:51;;;;;;;6.47;5.82;;;2.10;99.90;;;;;;4956385;28;20198;-95
2020/12/31 04:23:18;;;;;;;6.13;5.20;;;2.10;99.90;;;;;;4956663;28;20226;-92
2020/12/31 04:25:44;;;;;;;6.20;5.53;;;2.00;99.90;;;;;;4955999;28;20239;-92
2020/12/31 04:36:02;;;;;;;7.28;5.90;;;2.10;99.90;;;;;;4905286;29;20209;-92
2020/12/31 04:38:50;;;;;;;6.15;4.80;;;1.90;99.90;;;;;;4935910;29;20587;-92
2020/12/31 04:42:08;;;;;;;6.45;5.82;;;1.90;99.90;;;;;;4952592;28;20214;-92
2020/12/31 04:55:27;;;;;;;6.70;5.45;;;1.70;99.90;;;;;;4896517;29;20199;-93
2020/12/31 04:58:04;;;;;;;8.93;7.05;;;1.70;99.90;;;;;;4955759;28;20215;-94
2020/12/31 05:14:38;;;;;;;6.33;5.70;;;1.60;99.90;;;;;;4715121;30;20206;-93
2020/12/31 05:21:14;;;;;;;6.70;5.28;;;1.30;99.90;;;;;;4715169;30;20249;-93
2020/12/31 05:24:35;;;;;;;6.57;5.45;;;1.30;99.90;;;;;;4760354;29;20363;-92
2020/12/31 05:27:15;;;;;;;5.03;4.57;;;1.40;99.90;;;;;;4859506;29;20242;-92
2020/12/31 05:30:03;;;;;;;6.57;5.82;;;1.40;99.90;;;;;;4858643;29;20190;-92
2020/12/31 05:32:31;;;;;;;6.57;5.97;;;1.50;99.90;;;;;;4925690;29;20245;-95
2020/12/31 05:34:58;;;;;;;7.30;5.88;;;1.50;99.90;;;;;;4936643;29;20199;-93
2020/12/31 05:37:27;;;;;;;6.55;5.78;;;1.60;99.90;;;;;;4936905;29;20203;-94
2020/12/31 05:39:59;;;;;;;6.60;5.45;;;1.50;99.90;;;;;;4936866;29;20364;-93
2020/12/31 05:42:26;;;;;;;5.75;5.13;;;1.60;99.90;;;;;;4936952;29;20238;-93
2020/12/31 05:45:00;;;;;;;5.10;4.60;;;1.60;99.90;;;;;;4939237;29;20207;-93
2020/12/31 05:47:26;;;;;;;7.60;5.35;;;1.60;99.90;;;;;;4944305;29;20238;-93
2020/12/31 05:49:53;;;;;;;5.25;4.75;;;1.60;99.90;;;;;;4960515;28;20672;-96
2020/12/31 05:52:33;;;;;;;5.25;4.72;;;1.60;99.90;;;;;;4955550;29;20337;-93
2020/12/31 05:55:01;;;;;;;5.70;4.75;;;1.60;99.90;;;;;;4955809;28;20257;-93
2020/12/31 05:57:44;;;;;;;7.68;5.05;;;1.60;99.90;;;;;;4956428;28;20249;-95
2020/12/31 06:00:13;;;;;;;5.63;5.05;;;1.60;99.90;;;;;;4957508;28;20249;-93
2020/12/31 06:02:49;;;;;;;5.63;4.60;;;1.50;99.90;;;;;;4958017;28;20230;-93
2020/12/31 06:05:17;;;;;;;5.32;4.65;;;1.50;99.90;;;;;;4955536;29;20231;-93
2020/12/31 06:07:48;;;;;;;9.38;6.05;;;1.50;99.90;;;;;;4957221;28;20222;-94
2020/12/31 06:10:25;;;;;;;6.85;5.38;;;1.60;99.90;;;;;;4958042;28;20202;-93
2020/12/31 06:12:56;;;;;;;7.75;6.78;;;1.60;99.90;;;;;;4958404;28;20253;-92
2020/12/31 06:15:28;;;;;;;8.80;6.47;;;1.50;99.90;;;;;;4958890;28;20210;-94
2020/12/31 06:17:55;;;;;;;7.00;6.05;;;1.40;99.90;;;;;;4969941;28;20278;-93
2020/12/31 06:20:24;;;;;;;7.53;5.65;;;1.30;99.90;;;;;;4956385;28;20210;-93
2020/12/31 06:23:12;;;;;;;6.82;6.07;;;1.30;99.90;;;;;;4955689;28;20239;-93
2020/12/31 06:25:41;;;;;;;7.15;6.45;;;1.30;99.90;;;;;;4955652;28;20226;-93
2020/12/31 06:28:10;;;;;;;7.28;6.53;;;1.30;99.90;;;;;;4955804;29;20228;-93
2020/12/31 06:30:39;;;;;;;13.07;6.38;;;1.30;99.90;;;;;;4955370;28;20225;-93
2020/12/31 06:33:24;;;;;;;5.80;5.30;;;1.30;99.90;;;;;;4955112;28;20233;-93
2020/12/31 06:35:56;;;;;;;8.75;6.40;;;1.30;99.90;;;;;;4954873;29;20500;-92
2020/12/31 06:38:28;;;;;;;9.35;6.50;;;1.30;99.90;;;;;;4955145;28;20217;-92
2020/12/31 06:40:55;;;;;;;12.32;6.13;;;1.30;99.90;;;;;;4956101;28;20214;-94
2020/12/31 06:43:30;;;;;;;6.40;4.68;;;1.30;99.90;;;;;;4954643;28;20277;-93
2020/12/31 06:45:58;;;;;;;5.32;4.72;;;1.30;99.90;;;;;;4954476;29;20647;-95
2020/12/31 06:48:37;;;;;;;6.65;5.45;;;1.30;99.90;;;;;;4954887;28;20742;-94
2020/12/31 06:51:08;;;;;;;6.13;5.53;;;1.40;99.90;;;;;;4955222;29;20297;-95
2020/12/31 06:53:37;;;;;;;7.00;5.90;;;1.40;99.90;;;;;;4956436;29;20259;-93
2020/12/31 06:56:04;;;;;;;6.35;5.72;;;1.40;99.90;;;;;;4954719;29;20213;-93
2020/12/31 06:58:31;;;;;;;6.45;5.50;;;1.40;99.90;;;;;;4955015;28;20209;-93
2020/12/31 07:00:59;;;;;;;6.47;5.13;;;1.40;99.90;;;;;;4955335;28;20209;-93
2020/12/31 07:03:44;;;;;;;5.50;4.80;;;1.40;99.90;;;;;;4956817;28;20225;-92
2020/12/31 07:06:32;;;;;;;7.75;5.13;;;1.50;99.90;;;;;;4968914;28;20257;-92
2020/12/31 07:09:01;;;;;;;8.50;5.18;;;1.50;99.90;;;;;;4963916;28;20224;-93
2020/12/31 07:11:32;;;;;;;5.88;4.93;;;1.40;99.90;;;;;;4959252;28;20216;-93
2020/12/31 07:13:59;;;;;;;6.38;4.70;;;1.50;99.90;;;;;;4935889;29;20214;-94
2020/12/31 07:16:40;;;;;;;7.75;5.75;;;1.50;99.90;;;;;;4965139;28;20206;-94
2020/12/31 07:19:06;;;;;;;7.30;5.43;;;1.50;99.90;;;;;;4962053;28;20209;-91
2020/12/31 07:21:36;;;;;;;5.18;4.65;;;1.50;99.90;;;;;;4966701;28;20230;-93
2020/12/31 07:24:21;;;;;;;5.75;5.18;;;1.50;99.90;;;;;;4975607;28;20224;-94
2020/12/31 07:26:49;;;;;;;7.07;5.00;;;1.50;99.90;;;;;;4960683;28;20249;-92
2020/12/31 07:29:23;;;;;;;6.60;5.47;;;1.50;99.90;;;;;;4956739;28;20221;-92
2020/12/31 07:31:51;;;;;;;8.65;6.03;;;1.50;99.90;;;;;;4974149;28;20237;-92
2020/12/31 07:34:28;;;;;;;6.50;5.65;;;1.60;99.90;;;;;;4974373;28;20211;-92
2020/12/31 07:36:59;;;;;;;6.70;6.00;;;1.50;99.90;;;;;;4966707;28;20198;-92
2020/12/31 07:39:25;;;;;;;7.53;5.95;;;1.60;99.90;;;;;;4964517;28;20209;-93
2020/12/31 07:41:51;;;;;;;6.15;5.55;;;1.70;99.90;;;;;;4973111;28;20292;-93
2020/12/31 07:44:17;;;;;;;7.22;6.03;;;1.80;99.90;;;;;;4973143;28;20198;-92
2020/12/31 07:46:44;;;;;;;6.15;5.55;;;1.80;99.90;;;;;;4963002;28;20222;-93
2020/12/31 07:49:12;;;;;;;6.95;5.95;;;1.80;99.90;;;;;;4954505;28;20206;-93
2020/12/31 07:51:45;;;;;;;7.72;6.15;;;1.90;99.90;;;;;;4955351;28;20234;-92
2020/12/31 07:54:11;;;;;;;7.37;5.93;;;2.00;99.90;;;;;;4958895;28;20191;-94
2020/12/31 07:56:38;;;;;;;7.65;6.22;;;2.20;99.90;;;;;;4958633;28;20461;-92
2020/12/31 07:59:05;;;;;;;6.60;5.67;;;2.20;99.90;;;;;;4960847;28;20295;-92
2020/12/31 08:01:32;;;;;;;7.33;6.30;;;2.20;99.90;;;;;;4961848;28;20466;-93
2020/12/31 08:04:09;;;;;;;7.65;6.53;;;2.30;99.90;;;;;;4974227;28;20466;-94
2020/12/31 08:06:37;;;;;;;6.95;6.20;;;2.40;99.90;;;;;;4966891;28;20620;-93
2020/12/31 08:09:03;;;;;;;7.75;6.82;;;2.40;99.90;;;;;;4959392;28;20219;-95
2020/12/31 08:11:30;;;;;;;8.32;6.50;;;2.50;99.90;;;;;;4959009;28;20230;-94
2020/12/31 08:14:02;;;;;;;8.77;6.93;;;2.60;99.90;;;;;;4957941;28;20206;-94
2020/12/31 08:16:28;;;;;;;7.37;5.97;;;2.60;99.90;;;;;;4957649;28;20462;-94
2020/12/31 08:18:55;;;;;;;7.57;6.13;;;2.60;99.90;;;;;;4957707;28;20501;-94
2020/12/31 08:21:22;;;;;;;7.10;6.00;;;2.80;99.90;;;;;;4957300;28;20463;-94
2020/12/31 08:24:02;;;;;;;7.47;6.45;;;2.90;99.90;;;;;;4957317;28;20458;-92
2020/12/31 08:26:29;;;;;;;7.13;6.40;;;2.90;99.90;;;;;;4957915;29;20221;-92
2020/12/31 08:28:57;;;;;;;10.30;7.33;;;3.00;99.90;;;;;;4968714;28;20458;-93
2020/12/31 08:31:25;;;;;;;7.33;6.63;;;3.10;99.90;;;;;;4963064;28;20447;-92
2020/12/31 08:33:59;;;;;;;7.13;6.43;;;3.10;99.90;;;;;;4957722;28;20451;-93
2020/12/31 08:36:26;;;;;;;7.60;6.40;;;3.20;99.90;;;;;;4957359;28;20526;-92
2020/12/31 08:38:54;;;;;;;8.07;6.57;;;3.20;99.90;;;;;;4957900;29;20455;-92
2020/12/31 08:41:21;;;;;;;9.07;7.40;;;3.30;99.90;;;;;;4957113;28;20557;-92
2020/12/31 08:43:47;;;;;;;7.90;6.20;;;3.30;99.90;;;;;;4958470;28;20455;-92
2020/12/31 08:46:20;;;;;;;7.80;6.87;;;3.30;99.90;;;;;;4957848;28;20697;-93
2020/12/31 08:48:52;;;;;;;8.80;7.70;;;3.40;99.90;;;;;;4956801;28;20505;-92
2020/12/31 08:51:18;;;;;;;6.50;5.80;;;3.50;99.90;;;;;;4957135;28;21000;-89
2020/12/31 08:53:49;;;;;;;7.73;6.90;;;3.50;99.90;;;;;;4955989;28;20437;-92
2020/12/31 08:56:17;;;;;;;8.23;7.43;;;3.60;99.90;;;;;;4955064;29;20467;-91
2020/12/31 08:58:44;;;;;;;8.47;7.50;;;3.70;99.90;;;;;;4955381;28;20464;-90
2020/12/31 09:01:23;;;;;;;7.93;7.20;;;3.70;99.90;;;;;;4955285;28;20484;-90
2020/12/31 09:03:49;;;;;;;9.97;8.40;;;3.80;99.90;;;;;;4954038;28;20484;-91
2020/12/31 09:06:23;;;;;;;8.20;7.40;;;3.90;99.90;;;;;;4954603;28;21039;-92
2020/12/31 09:08:50;;;;;;;15.00;9.00;;;3.90;99.90;;;;;;4954542;28;20535;-89
2020/12/31 09:11:25;;;;;;;9.87;7.40;;;3.90;99.90;;;;;;4946055;28;20592;-91
2020/12/31 09:13:52;;;;;;;10.00;7.57;;;3.90;99.90;;;;;;4947329;29;20453;-89
2020/12/31 09:16:19;;;;;;;9.20;8.23;;;4.00;99.90;;;;;;4946721;28;20856;-90
2020/12/31 09:18:45;;;;;;;9.97;8.50;;;4.00;99.90;;;;;;4948297;29;20959;-91
2020/12/31 09:21:12;;;;;;;8.20;7.40;;;3.90;99.90;;;;;;4950766;28;20953;-92
2020/12/31 09:23:38;;;;;;;8.30;7.00;;;4.00;99.90;;;;;;4942698;28;20974;-92
2020/12/31 09:26:05;;;;;;;9.70;8.50;;;4.10;99.90;;;;;;4944309;28;20495;-91
2020/12/31 09:28:33;;;;;;;10.37;9.27;;;4.10;99.90;;;;;;4940155;29;20807;-90
2020/12/31 09:31:17;;;;;;;8.40;7.50;;;4.10;99.90;;;;;;4948409;29;20487;-92
2020/12/31 09:33:46;;;;;;;9.07;8.17;;;4.10;99.90;;;;;;4943070;29;20469;-90
2020/12/31 09:36:20;;;;;;;10.03;8.03;;;4.10;99.90;;;;;;4945589;28;20493;-90
2020/12/31 09:38:46;;;;;;;9.93;8.93;;;4.20;99.90;;;;;;4951168;28;20918;-90
2020/12/31 09:41:13;;;;;;;14.03;9.40;;;4.20;99.90;;;;;;4946957;28;20445;-91
2020/12/31 09:43:40;;;;;;;11.70;8.93;;;4.20;99.90;;;;;;4944269;29;20441;-91
2020/12/31 09:46:06;;;;;;;9.77;8.73;;;4.30;99.90;;;;;;4945125;28;20485;-91
2020/12/31 09:48:32;;;;;;;11.30;10.07;;;4.40;99.90;;;;;;4945862;28;20934;-90
2020/12/31 09:50:59;;;;;;;11.10;8.10;;;4.50;99.90;;;;;;4948708;28;20967;-91
2020/12/31 09:53:25;;;;;;;10.03;8.70;;;4.50;99.90;;;;;;4951256;28;20460;-90
2020/12/31 09:55:51;;;;;;;9.90;8.90;;;4.60;99.90;;;;;;4955266;28;20445;-93
2020/12/31 09:58:17;;;;;;;10.40;9.10;;;4.70;99.90;;;;;;4956501;28;20449;-91
2020/12/31 10:00:44;;;;;;;8.90;7.87;;;4.70;99.90;;;;;;5235162;23;21436;-96
2020/12/31 10:03:11;;;;;;;11.07;9.27;;;4.80;99.90;;;;;;4956651;28;20494;-91
2020/12/31 10:05:37;;;;;;;9.63;8.63;;;4.80;99.90;;;;;;4956544;28;20485;-92
2020/12/31 10:08:03;;;;;;;10.10;8.60;;;4.80;99.90;;;;;;4956631;28;20568;-91
2020/12/31 10:10:29;;;;;;;10.70;9.60;;;4.90;99.90;;;;;;4951726;28;20458;-88
2020/12/31 10:12:55;;;;;;;12.23;9.43;;;4.80;99.90;;;;;;4945922;28;20482;-88
2020/12/31 10:20:47;;;;;;;9.63;8.30;;;4.90;99.90;;;;;;4975989;28;20479;-95
2020/12/31 10:23:15;;;;;;;8.73;7.83;;;5.10;99.90;;;;;;5213787;23;20492;-95
2020/12/31 10:28:19;;;;;;;11.00;9.30;;;5.10;99.90;;;;;;5287241;23;21298;-91
2020/12/31 10:30:45;;;;;;;11.20;9.97;;;5.20;99.90;;;;;;4954625;28;20428;-92
2020/12/31 10:33:12;;;;;;;11.70;9.30;;;5.50;99.90;;;;;;4954063;28;20478;-91
2020/12/31 10:35:38;;;;;;;11.87;10.13;;;5.90;99.90;;;;;;4953599;28;20448;-90
2020/12/31 10:38:05;;;;;;;9.80;8.90;;;6.10;99.90;;;;;;4953336;28;20445;-91
2020/12/31 10:40:31;;;;;;;9.27;8.10;;;6.20;99.90;;;;;;4945540;28;20433;-91
2020/12/31 10:42:57;;;;;;;11.10;9.40;;;6.20;99.90;;;;;;4943315;28;20488;-91
2020/12/31 10:45:24;;;;;;;10.30;9.30;;;6.30;99.90;;;;;;4944500;29;20438;-90
2020/12/31 10:47:50;;;;;;;9.33;8.40;;;6.30;99.90;;;;;;4953448;28;20457;-91
2020/12/31 10:50:16;;;;;;;9.83;8.80;;;6.30;99.90;;;;;;4953890;28;20437;-91
2020/12/31 10:52:56;;;;;;;10.80;8.93;;;6.10;99.90;;;;;;4953494;28;20469;-92
2020/12/31 10:55:23;;;;;;;10.07;7.70;;;6.00;99.90;;;;;;4955577;28;20429;-93
2020/12/31 10:57:50;;;;;;;10.60;9.33;;;5.90;99.90;;;;;;4953640;28;20565;-92
2020/12/31 11:00:16;;;;;;;11.73;9.13;;;5.80;99.90;;;;;;4953569;28;20445;-92
2020/12/31 11:02:42;;;;;;;10.27;9.27;;;5.60;99.90;;;;;;4953457;28;20469;-91
2020/12/31 11:05:08;;;;;;;11.10;9.97;;;5.60;99.90;;;;;;4953381;29;20453;-91
2020/12/31 11:07:34;;;;;;;8.43;7.53;;;5.40;99.90;;;;;;4954045;28;20845;-89
2020/12/31 11:10:00;;;;;;;8.03;7.23;;;5.20;99.90;;;;;;4955724;28;20444;-89
2020/12/31 11:12:27;;;;;;;9.13;8.17;;;4.90;99.90;;;;;;4953460;28;20916;-90
2020/12/31 11:14:54;;;;;;;7.87;7.07;;;4.70;99.90;;;;;;4949149;28;20989;-89
2020/12/31 11:17:20;;;;;;;12.00;8.33;;;4.60;99.90;;;;;;4934364;29;20450;-93
2020/12/31 11:19:46;;;;;;;10.50;8.67;;;4.50;99.90;;;;;;4934441;29;20472;-91
2020/12/31 11:22:12;;;;;;;12.23;7.83;;;4.60;99.90;;;;;;4934885;29;20998;-87
2020/12/31 11:24:38;;;;;;;8.40;7.60;;;4.80;99.90;;;;;;4937231;29;20446;-92
2020/12/31 11:27:06;;;;;;;9.20;7.70;;;5.10;99.90;;;;;;4958085;28;20492;-85
2020/12/31 11:29:33;;;;;;;9.20;8.23;;;5.10;99.90;;;;;;4956252;29;20472;-85
2020/12/31 11:32:00;;;;;;;9.60;7.23;;;5.10;99.90;;;;;;4957165;28;20500;-85
2020/12/31 11:34:26;;;;;;;8.83;7.93;;;5.00;99.90;;;;;;4956225;28;20949;-85
2020/12/31 11:36:53;;;;;;;8.00;7.20;;;4.90;99.90;;;;;;4957116;28;20958;-87
2020/12/31 11:39:19;;;;;;;7.63;6.73;;;4.80;99.90;;;;;;4957025;28;20452;-86
2020/12/31 11:41:45;;;;;;;9.33;8.40;;;4.90;99.90;;;;;;4956880;28;20481;-86
2020/12/31 11:44:11;;;;;;;9.23;7.47;;;4.90;99.90;;;;;;4956954;28;20463;-85
2020/12/31 11:46:38;;;;;;;9.67;8.20;;;5.10;99.90;;;;;;4939004;28;20495;-86
2020/12/31 11:49:04;;;;;;;16.40;9.80;;;5.10;99.90;;;;;;4937909;29;20981;-85
2020/12/31 11:51:31;;;;;;;8.00;7.13;;;5.20;99.90;;;;;;4937194;29;20481;-85
2020/12/31 11:53:57;;;;;;;8.57;7.60;;;5.40;99.90;;;;;;4937011;29;20472;-85
2020/12/31 11:56:24;;;;;;;8.73;7.83;;;5.70;99.90;;;;;;4951747;28;20835;-86
2020/12/31 11:58:50;;;;;;;9.20;7.73;;;6.20;99.90;;;;;;4956649;28;20444;-86
2020/12/31 12:01:16;;;;;;;8.17;7.37;;;6.60;99.90;;;;;;4956003;28;20437;-87
2020/12/31 12:03:44;;;;;;;9.03;7.97;;;6.80;99.90;;;;;;4956286;28;20539;-86
2020/12/31 12:06:10;;;;;;;9.03;8.13;;;6.80;99.90;;;;;;4940915;29;20527;-85
2020/12/31 12:08:37;;;;;;;8.10;7.30;;;6.90;99.90;;;;;;4937150;29;20465;-86
2020/12/31 12:11:03;;;;;;;9.80;8.40;;;6.90;99.90;;;;;;4936642;29;20450;-88
2020/12/31 12:13:29;;;;;;;9.57;8.60;;;7.00;99.90;;;;;;4942482;29;20472;-87
2020/12/31 12:15:55;;;;;;;8.67;7.83;;;7.10;99.90;;;;;;4955545;28;20972;-85
2020/12/31 12:18:23;;;;;;;8.60;7.50;;;7.00;99.90;;;;;;4955969;28;20453;-86
2020/12/31 12:20:50;;;;;;;6.73;6.10;;;7.00;99.90;;;;;;4956325;28;20443;-86
2020/12/31 12:23:17;;;;;;;7.47;6.77;;;6.90;99.90;;;;;;4951157;28;20873;-85
2020/12/31 12:25:43;;;;;;;8.00;7.20;;;6.70;99.90;;;;;;4936354;29;20437;-86
2020/12/31 12:28:09;;;;;;;8.23;7.43;;;6.30;99.90;;;;;;4936829;29;20567;-86
2020/12/31 12:30:36;;;;;;;8.00;7.20;;;6.20;99.90;;;;;;4936259;29;20441;-85
2020/12/31 12:33:02;;;;;;;7.27;6.57;;;6.00;99.90;;;;;;4938682;29;21011;-84
2020/12/31 12:35:28;;;;;;;6.87;6.27;;;6.00;99.90;;;;;;4955675;29;20495;-87
2020/12/31 12:37:57;;;;;;;8.20;7.10;;;6.00;99.90;;;;;;4955505;28;20492;-86
2020/12/31 12:40:23;;;;;;;8.90;8.00;;;5.80;99.90;;;;;;4956050;28;20494;-86
2020/12/31 12:42:49;;;;;;;8.23;7.43;;;5.80;99.90;;;;;;4955158;28;20464;-85
2020/12/31 12:45:16;;;;;;;8.00;6.87;;;5.70;99.90;;;;;;4935529;29;20481;-86
2020/12/31 12:47:42;;;;;;;6.77;6.07;;;5.60;99.90;;;;;;4936746;29;20441;-86
2020/12/31 12:50:10;;;;;;;8.00;6.97;;;5.60;99.90;;;;;;4936686;29;20456;-85
2020/12/31 12:52:37;;;;;;;7.43;6.73;;;5.60;99.90;;;;;;4936357;29;20576;-85
2020/12/31 12:55:05;;;;;;;7.10;6.40;;;5.70;99.90;;;;;;4953794;28;20456;-85
2020/12/31 12:57:32;;;;;;;9.90;7.40;;;5.70;99.90;;;;;;4955147;28;20488;-86
2020/12/31 12:59:58;;;;;;;9.13;7.70;;;5.70;99.90;;;;;;4955633;28;20452;-84
2020/12/31 13:02:24;;;;;;;7.23;6.53;;;5.70;99.90;;;;;;4955319;28;20818;-85
2020/12/31 13:04:50;;;;;;;8.60;6.60;;;5.60;99.90;;;;;;4939009;29;20458;-85
2020/12/31 13:07:16;;;;;;;8.23;7.10;;;5.60;99.90;;;;;;4936179;29;20453;-86
2020/12/31 13:09:43;;;;;;;7.70;6.90;;;5.60;99.90;;;;;;4936142;29;20514;-85
2020/12/31 13:12:10;;;;;;;6.73;6.03;;;5.60;99.90;;;;;;4936148;29;20500;-85
2020/12/31 13:14:38;;;;;;;7.40;6.70;;;5.70;99.90;;;;;;4950754;29;20457;-85
2020/12/31 13:17:04;;;;;;;8.83;7.60;;;5.70;99.90;;;;;;4955038;28;20480;-85
2020/12/31 13:19:30;;;;;;;7.03;6.23;;;5.70;99.90;;;;;;4954891;28;20453;-85
2020/12/31 13:21:58;;;;;;;6.33;5.30;;;5.70;99.90;;;;;;4954985;28;20477;-85
2020/12/31 13:24:24;;;;;;;8.50;6.17;;;5.70;99.90;;;;;;4940873;29;21208;-85
2020/12/31 13:26:51;;;;;;;7.10;5.47;;;5.70;99.90;;;;;;4935722;29;20449;-85
2020/12/31 13:29:18;;;;;;;7.13;6.17;;;5.70;99.90;;;;;;4935573;29;20472;-85
2020/12/31 13:31:45;;;;;;;7.50;6.47;;;5.80;99.90;;;;;;4935849;29;20540;-86
2020/12/31 13:34:11;;;;;;;7.30;6.60;;;5.70;99.90;;;;;;4946786;29;20452;-86
2020/12/31 13:36:37;;;;;;;7.13;6.43;;;5.70;99.90;;;;;;4954395;28;20499;-85
2020/12/31 13:39:05;;;;;;;5.93;4.80;;;5.80;99.90;;;;;;4954528;28;20491;-85
2020/12/31 13:41:32;;;;;;;6.07;5.43;;;5.90;99.90;;;;;;4954329;28;20482;-86
2020/12/31 13:43:58;;;;;;;6.60;5.90;;;5.90;99.90;;;;;;4944981;28;20454;-86
2020/12/31 13:46:25;;;;;;;5.20;4.70;;;5.90;99.90;;;;;;4934912;29;20441;-85